createdAt,value
2023-04-12T00:01:28.344Z,309
2023-04-12T00:03:36.978Z,312
2023-04-12T00:05:43.479Z,313
2023-04-12T00:07:50.133Z,310
2023-04-12T00:09:56.745Z,310
2023-04-12T00:12:02.987Z,310
2023-04-12T00:14:10.790Z,309
2023-04-12T00:16:17.977Z,310
2023-04-12T00:18:24.809Z,310
2023-04-12T00:20:31.351Z,309
2023-04-12T00:22:37.563Z,310
2023-04-12T00:24:43.785Z,310
2023-04-12T00:26:50.932Z,309
2023-04-12T00:28:57.869Z,309
2023-04-12T00:31:04.229Z,309
2023-04-12T00:33:10.919Z,307
2023-04-12T00:35:17.433Z,307
2023-04-12T00:37:25.116Z,308
2023-04-12T00:39:31.700Z,308
2023-04-12T00:41:37.908Z,307
2023-04-12T00:43:44.398Z,308
2023-04-12T00:45:51.931Z,308
2023-04-12T00:47:58.285Z,307
2023-04-12T00:50:04.583Z,305
2023-04-12T00:52:11.510Z,308
2023-04-12T00:54:17.823Z,307
2023-04-12T00:56:24.467Z,307
2023-04-12T00:58:31.197Z,306
2023-04-12T01:00:37.625Z,307
2023-04-12T01:02:44.789Z,305
2023-04-12T01:04:55.237Z,308
2023-04-12T01:07:02.125Z,308
2023-04-12T01:09:08.995Z,296
2023-04-12T01:11:15.637Z,300
2023-04-12T01:13:22.290Z,310
2023-04-12T01:15:29.477Z,307
2023-04-12T01:17:35.540Z,313
2023-04-12T01:19:42.796Z,313
2023-04-12T01:21:49.301Z,314
2023-04-12T01:23:55.938Z,315
2023-04-12T01:26:02.621Z,315
2023-04-12T01:28:09.412Z,315
2023-04-12T01:30:16.015Z,312
2023-04-12T01:32:22.623Z,313
2023-04-12T01:34:28.931Z,313
2023-04-12T01:36:35.034Z,313
2023-04-12T01:38:41.950Z,313
2023-04-12T01:40:48.520Z,315
2023-04-12T01:42:55.559Z,310
2023-04-12T01:45:02.659Z,315
2023-04-12T01:47:09.212Z,313
2023-04-12T01:49:16.003Z,315
2023-04-12T01:51:23.672Z,315
2023-04-12T01:53:29.882Z,315
2023-04-12T01:55:36.224Z,312
2023-04-12T01:57:42.632Z,315
2023-04-12T01:59:49.083Z,315
2023-04-12T02:01:56.474Z,315
2023-04-12T02:04:04.612Z,314
2023-04-12T02:06:11.539Z,315
2023-04-12T02:08:18.624Z,316
2023-04-12T02:10:25.645Z,316
2023-04-12T02:12:32.527Z,315
2023-04-12T02:14:39.192Z,316
2023-04-12T02:16:45.915Z,316
2023-04-12T02:18:52.343Z,316
2023-04-12T02:20:59.604Z,315
2023-04-12T02:23:06.315Z,315
2023-04-12T02:25:13.194Z,313
2023-04-12T02:27:20.056Z,316
2023-04-12T02:29:26.302Z,315
2023-04-12T02:31:32.759Z,315
2023-04-12T02:33:39.080Z,316
2023-04-12T02:35:45.940Z,310
2023-04-12T02:37:52.903Z,317
2023-04-12T02:40:00.501Z,316
2023-04-12T02:42:06.869Z,316
2023-04-12T02:44:14.011Z,316
2023-04-12T02:46:20.981Z,316
2023-04-12T02:48:28.069Z,317
2023-04-12T02:50:35.209Z,316
2023-04-12T02:52:41.897Z,317
2023-04-12T02:54:48.341Z,316
2023-04-12T02:56:54.769Z,316
2023-04-12T02:59:01.323Z,316
2023-04-12T03:01:07.924Z,316
2023-04-12T03:03:15.723Z,316
2023-04-12T03:05:22.598Z,315
2023-04-12T03:07:29.181Z,315
2023-04-12T03:09:35.793Z,313
2023-04-12T03:11:42.224Z,313
2023-04-12T03:13:48.764Z,312
2023-04-12T03:15:55.357Z,313
2023-04-12T03:18:02.057Z,315
2023-04-12T03:20:08.939Z,315
2023-04-12T03:22:15.378Z,315
2023-04-12T03:24:21.685Z,315
2023-04-12T03:26:29.016Z,313
2023-04-12T03:28:35.684Z,315
2023-04-12T03:30:42.119Z,315
2023-04-12T03:32:48.964Z,315
2023-04-12T03:34:55.780Z,315
2023-04-12T03:37:02.664Z,313
2023-04-12T03:39:09.535Z,315
2023-04-12T03:41:16.142Z,315
2023-04-12T03:43:22.667Z,315
2023-04-12T03:45:29.609Z,315
2023-04-12T03:47:36.380Z,313
2023-04-12T03:49:42.570Z,306
2023-04-12T03:51:49.338Z,313
2023-04-12T03:53:56.223Z,316
2023-04-12T03:56:04.329Z,320
2023-04-12T03:58:11.293Z,321
2023-04-12T04:00:17.835Z,321
2023-04-12T04:02:24.967Z,321
2023-04-12T04:04:32.115Z,321
2023-04-12T04:06:38.620Z,321
2023-04-12T04:08:45.281Z,314
2023-04-12T04:10:51.813Z,313
2023-04-12T04:12:58.379Z,314
2023-04-12T04:15:05.065Z,308
2023-04-12T04:17:11.686Z,313
2023-04-12T04:19:18.519Z,312
2023-04-12T04:21:24.994Z,313
2023-04-12T04:23:31.529Z,313
2023-04-12T04:25:38.242Z,313
2023-04-12T04:27:44.939Z,312
2023-04-12T04:29:51.575Z,315
2023-04-12T04:31:57.848Z,313
2023-04-12T04:34:14.813Z,313
2023-04-12T04:36:22.255Z,313
2023-04-12T04:38:28.802Z,312
2023-04-12T04:40:35.239Z,313
2023-04-12T04:42:41.747Z,309
2023-04-12T04:44:48.172Z,313
2023-04-12T04:46:54.840Z,312
2023-04-12T04:49:01.542Z,312
2023-04-12T04:51:08.277Z,313
2023-04-12T04:53:14.698Z,312
2023-04-12T04:55:21.489Z,313
2023-04-12T04:57:27.851Z,312
2023-04-12T04:59:37.082Z,312
2023-04-12T05:01:46.504Z,313
2023-04-12T05:03:53.907Z,313
2023-04-12T05:06:01.525Z,312
2023-04-12T05:08:08.104Z,309
2023-04-12T05:10:14.919Z,309
2023-04-12T05:12:22.134Z,309
2023-04-12T05:14:51.567Z,308
2023-04-12T05:17:17.315Z,310
2023-04-12T05:19:23.978Z,310
2023-04-12T05:21:30.443Z,312
2023-04-12T05:23:37.257Z,313
2023-04-12T05:25:43.938Z,312
2023-04-12T05:27:54.430Z,313
2023-04-12T05:30:01.137Z,313
2023-04-12T05:32:07.781Z,312
2023-04-12T05:34:13.968Z,313
2023-04-12T05:36:21.158Z,312
2023-04-12T05:38:28.098Z,312
2023-04-12T05:40:35.127Z,312
2023-04-12T05:42:41.673Z,310
2023-04-12T05:44:51.409Z,310
2023-04-12T05:46:58.347Z,312
2023-04-12T05:49:14.373Z,309
2023-04-12T05:51:41.879Z,312
2023-04-12T05:53:49.907Z,312
2023-04-12T05:55:56.649Z,312
2023-04-12T05:58:02.988Z,312
2023-04-12T06:00:09.700Z,312
2023-04-12T06:02:16.584Z,312
2023-04-12T06:04:29.969Z,312
2023-04-12T06:06:47.427Z,313
2023-04-12T06:08:54.408Z,313
2023-04-12T06:11:01.726Z,313
2023-04-12T06:13:08.274Z,313
2023-04-12T06:15:15.066Z,312
2023-04-12T06:17:21.454Z,313
2023-04-12T06:19:27.725Z,313
2023-04-12T06:21:34.455Z,313
2023-04-12T06:23:40.684Z,313
2023-04-12T06:25:47.332Z,313
2023-04-12T06:27:54.453Z,313
2023-04-12T06:30:00.789Z,313
2023-04-12T06:32:07.449Z,313
2023-04-12T06:34:13.888Z,313
2023-04-12T06:36:20.550Z,313
2023-04-12T06:38:27.009Z,313
2023-04-12T06:40:33.411Z,312
2023-04-12T06:42:39.781Z,310
2023-04-12T06:44:46.765Z,313
2023-04-12T06:46:53.333Z,313
2023-04-12T06:49:00.962Z,313
2023-04-12T06:51:08.147Z,313
2023-04-12T06:53:15.558Z,313
2023-04-12T06:55:22.730Z,312
2023-04-12T06:57:30.125Z,313
2023-04-12T06:59:36.970Z,313
2023-04-12T07:01:45.498Z,313
2023-04-12T07:03:52.614Z,313
2023-04-12T07:05:59.234Z,313
2023-04-12T07:08:12.844Z,313
2023-04-12T07:10:19.832Z,313
2023-04-12T07:12:26.513Z,312
2023-04-12T07:14:33.445Z,312
2023-04-12T07:16:40.237Z,312
2023-04-12T07:18:47.055Z,312
2023-04-12T07:20:53.747Z,312
2023-04-12T07:23:00.697Z,312
2023-04-12T07:25:07.216Z,312
2023-04-12T07:27:27.875Z,312
2023-04-12T07:29:34.720Z,312
2023-04-12T07:31:42.312Z,312
2023-04-12T07:33:49.874Z,310
2023-04-12T07:35:58.071Z,310
2023-04-12T07:38:04.965Z,312
2023-04-12T07:40:11.429Z,312
2023-04-12T07:42:17.835Z,312
2023-04-12T07:44:24.830Z,312
2023-04-12T07:46:31.301Z,309
2023-04-12T07:48:38.797Z,310
2023-04-12T07:50:47.174Z,313
2023-04-12T07:52:54.229Z,312
2023-04-12T07:55:00.773Z,313
2023-04-12T07:57:07.086Z,312
2023-04-12T07:59:13.642Z,313
2023-04-12T08:01:20.535Z,313
2023-04-12T08:03:27.944Z,313
2023-04-12T08:05:34.926Z,312
2023-04-12T08:07:41.828Z,313
2023-04-12T08:09:49.603Z,313
2023-04-12T08:11:56.573Z,312
2023-04-12T08:14:03.465Z,312
2023-04-12T08:16:09.854Z,313
2023-04-12T08:18:16.606Z,312
2023-04-12T08:20:23.238Z,312
2023-04-12T08:22:30.169Z,312
2023-04-12T08:24:36.709Z,313
2023-04-12T08:26:43.455Z,314
2023-04-12T08:28:50.843Z,313
2023-04-12T08:30:58.064Z,315
2023-04-12T08:33:06.316Z,313
2023-04-12T08:35:14.088Z,313
2023-04-12T08:37:21.072Z,313
2023-04-12T08:39:28.988Z,313
2023-04-12T08:41:37.645Z,312
2023-04-12T08:43:44.393Z,312
2023-04-12T08:46:04.961Z,312
2023-04-12T08:48:11.692Z,312
2023-04-12T08:50:19.735Z,312
2023-04-12T08:52:26.340Z,312
2023-04-12T08:54:33.080Z,312
2023-04-12T08:56:40.179Z,312
2023-04-12T08:58:46.801Z,312
2023-04-12T09:00:54.006Z,313
2023-04-12T09:03:02.670Z,313
2023-04-12T09:05:10.452Z,313
2023-04-12T09:07:17.356Z,313
2023-04-12T09:09:23.963Z,315
2023-04-12T09:11:30.469Z,314
2023-04-12T09:13:37.473Z,313
2023-04-12T09:15:44.374Z,313
2023-04-12T09:17:51.727Z,313
2023-04-12T09:19:58.770Z,315
2023-04-12T09:22:07.338Z,314
2023-04-12T09:24:18.009Z,313
2023-04-12T09:26:24.643Z,314
2023-04-12T09:28:30.993Z,313
2023-04-12T09:30:41.823Z,313
2023-04-12T09:32:48.677Z,315
2023-04-12T09:34:55.843Z,315
2023-04-12T09:37:02.665Z,315
2023-04-12T09:39:09.451Z,314
2023-04-12T09:41:17.570Z,315
2023-04-12T09:43:31.767Z,315
2023-04-12T09:45:39.382Z,313
2023-04-12T09:47:46.420Z,313
2023-04-12T09:49:54.432Z,313
2023-04-12T09:52:03.363Z,314
2023-04-12T09:54:10.566Z,313
2023-04-12T09:56:17.242Z,313
2023-04-12T09:58:24.262Z,312
2023-04-12T10:00:31.295Z,312
2023-04-12T10:02:38.856Z,313
2023-04-12T10:04:46.600Z,313
2023-04-12T10:06:53.391Z,313
2023-04-12T10:09:00.812Z,314
2023-04-12T10:11:08.810Z,313
2023-04-12T10:13:15.415Z,313
2023-04-12T10:15:22.276Z,313
2023-04-12T10:17:28.757Z,313
2023-04-12T10:19:35.750Z,313
2023-04-12T10:21:42.267Z,313
2023-04-12T10:23:49.456Z,315
2023-04-12T10:25:59.191Z,315
2023-04-12T10:28:13.430Z,320
2023-04-12T10:30:21.289Z,321
2023-04-12T10:32:28.846Z,325
2023-04-12T10:34:36.251Z,315
2023-04-12T10:36:42.843Z,315
2023-04-12T10:38:49.547Z,315
2023-04-12T10:40:56.620Z,315
2023-04-12T10:43:03.591Z,315
2023-04-12T10:45:10.685Z,313
2023-04-12T10:47:17.601Z,314
2023-04-12T10:49:24.464Z,313
2023-04-12T10:51:30.935Z,315
2023-04-12T10:53:38.052Z,316
2023-04-12T10:55:44.743Z,315
2023-04-12T10:58:03.720Z,315
2023-04-12T11:00:13.300Z,316
2023-04-12T11:02:24.875Z,315
2023-04-12T11:04:32.443Z,315
2023-04-12T11:06:40.910Z,315
2023-04-12T11:08:47.341Z,313
2023-04-12T11:11:06.100Z,314
2023-04-12T11:13:16.171Z,315
2023-04-12T11:15:23.034Z,315
2023-04-12T11:17:30.664Z,315
2023-04-12T11:19:38.198Z,313
2023-04-12T11:21:44.608Z,313
2023-04-12T11:26:13.011Z,316
2023-04-12T11:28:35.459Z,315
2023-04-12T11:30:43.986Z,316
2023-04-12T11:32:51.031Z,315
2023-04-12T11:34:57.473Z,315
2023-04-12T11:37:04.244Z,313
2023-04-12T11:39:13.603Z,313
2023-04-12T11:41:20.839Z,312
2023-04-12T11:43:28.046Z,313
2023-04-12T11:45:34.747Z,312
2023-04-12T11:47:41.440Z,313
2023-04-12T11:49:48.297Z,312
2023-04-12T11:51:55.544Z,310
2023-04-12T11:54:03.622Z,312
2023-04-12T11:56:11.685Z,310
2023-04-12T11:58:18.411Z,318
2023-04-12T12:00:25.401Z,319
2023-04-12T12:02:52.480Z,319
2023-04-12T12:05:10.836Z,319
2023-04-12T12:07:23.545Z,319
2023-04-12T12:09:31.373Z,318
2023-04-12T12:11:38.118Z,319
2023-04-12T12:13:46.293Z,319
2023-04-12T12:15:53.759Z,319
2023-04-12T12:18:00.438Z,319
2023-04-12T12:20:07.879Z,318
2023-04-12T12:22:14.278Z,319
2023-04-12T12:24:21.764Z,319
2023-04-12T12:26:28.630Z,319
2023-04-12T12:28:35.104Z,319
2023-04-12T12:30:43.282Z,319
2023-04-12T12:32:49.715Z,319
2023-04-12T12:34:56.525Z,319
2023-04-12T12:37:03.106Z,319
2023-04-12T12:39:09.900Z,319
2023-04-12T12:41:16.955Z,319
2023-04-12T12:43:23.845Z,319
2023-04-12T12:45:30.475Z,319
2023-04-12T12:47:37.134Z,319
2023-04-12T12:49:44.274Z,319
2023-04-12T12:51:51.026Z,319
2023-04-12T12:53:57.971Z,317
2023-04-12T12:56:05.140Z,317
2023-04-12T12:58:11.748Z,317
2023-04-12T13:00:18.722Z,317
2023-04-12T13:02:25.773Z,317
2023-04-12T13:04:33.420Z,317
2023-04-12T13:06:40.626Z,317
2023-04-12T13:08:47.249Z,318
2023-04-12T13:10:54.056Z,318
2023-04-12T13:13:01.233Z,318
2023-04-12T13:15:26.300Z,318
2023-04-12T13:17:33.316Z,317
2023-04-12T13:19:40.307Z,318
2023-04-12T13:21:47.749Z,317
2023-04-12T13:24:01.062Z,318
2023-04-12T13:26:07.566Z,318
2023-04-12T13:28:14.484Z,318
2023-04-12T13:30:20.836Z,319
2023-04-12T13:32:28.045Z,318
2023-04-12T13:34:34.660Z,317
2023-04-12T13:36:41.148Z,317
2023-04-12T13:38:47.918Z,319
2023-04-12T13:40:54.585Z,317
2023-04-12T13:43:01.214Z,319
2023-04-12T13:45:07.640Z,319
2023-04-12T13:47:14.284Z,317
2023-04-12T13:49:21.069Z,317
2023-04-12T13:51:27.359Z,318
2023-04-12T13:53:34.162Z,319
2023-04-12T13:55:41.194Z,319
2023-04-12T13:57:47.478Z,319
2023-04-12T13:59:54.854Z,319
2023-04-12T14:02:02.134Z,319
2023-04-12T14:04:08.807Z,319
2023-04-12T14:06:15.767Z,319
2023-04-12T14:08:22.050Z,319
2023-04-12T14:10:28.796Z,319
2023-04-12T14:12:35.581Z,319
2023-04-12T14:14:42.839Z,319
2023-04-12T14:16:50.127Z,319
2023-04-12T14:18:58.440Z,319
2023-04-12T14:21:05.809Z,319
2023-04-12T14:23:12.416Z,319
2023-04-12T14:25:19.901Z,319
2023-04-12T14:27:26.393Z,319
2023-04-12T14:29:33.547Z,319
2023-04-12T14:31:41.239Z,319
2023-04-12T14:33:49.003Z,319
2023-04-12T14:35:55.590Z,319
2023-04-12T14:38:01.955Z,319
2023-04-12T14:40:08.531Z,319
2023-04-12T14:42:15.162Z,320
2023-04-12T14:44:27.585Z,320
2023-04-12T14:46:34.938Z,320
2023-04-12T14:48:41.678Z,320
2023-04-12T14:50:48.220Z,320
2023-04-12T14:52:54.760Z,319
2023-04-12T14:55:01.264Z,320
2023-04-12T14:57:07.895Z,319
2023-04-12T14:59:14.498Z,319
2023-04-12T15:01:21.323Z,319
2023-04-12T15:03:28.490Z,320
2023-04-12T15:05:36.232Z,319
2023-04-12T15:07:44.192Z,319
2023-04-12T15:09:52.226Z,319
2023-04-12T15:11:58.681Z,319
2023-04-12T15:14:05.482Z,319
2023-04-12T15:16:12.716Z,319
2023-04-12T15:18:20.343Z,316
2023-04-12T15:20:27.659Z,313
2023-04-12T15:22:34.517Z,315
2023-04-12T15:24:40.954Z,315
2023-04-12T15:26:48.104Z,313
2023-04-12T15:28:55.125Z,315
2023-04-12T15:31:01.666Z,310
2023-04-12T15:33:08.751Z,313
2023-04-12T15:35:27.867Z,313
2023-04-12T15:37:34.937Z,313
2023-04-12T15:39:42.329Z,313
2023-04-12T15:41:49.257Z,309
2023-04-12T15:43:55.874Z,309
2023-04-12T15:46:03.347Z,310
2023-04-12T15:48:10.444Z,309
2023-04-12T15:50:17.739Z,310
2023-04-12T15:52:24.733Z,310
2023-04-12T15:54:31.532Z,309
2023-04-12T15:56:39.263Z,309
2023-04-12T15:58:45.864Z,309
2023-04-12T16:00:52.509Z,310
2023-04-12T16:03:00.853Z,310
2023-04-12T16:05:08.976Z,310
2023-04-12T16:07:16.550Z,310
2023-04-12T16:09:23.105Z,310
2023-04-12T16:11:29.577Z,310
2023-04-12T16:13:37.043Z,310
2023-04-12T16:15:44.453Z,310
2023-04-12T16:17:52.301Z,312
2023-04-12T16:19:59.149Z,312
2023-04-12T16:22:06.730Z,312
2023-04-12T16:24:14.419Z,312
2023-04-12T16:26:21.586Z,312
2023-04-12T16:28:32.939Z,312
2023-04-12T16:30:42.532Z,312
2023-04-12T16:32:51.583Z,281
2023-04-12T16:34:59.318Z,284
2023-04-12T16:37:10.315Z,284
2023-04-12T16:39:17.497Z,284
2023-04-12T16:41:24.173Z,288
2023-04-12T16:43:31.050Z,283
2023-04-12T16:45:38.348Z,288
2023-04-12T16:47:46.037Z,284
2023-04-12T16:49:57.146Z,283
2023-04-12T16:52:06.136Z,297
2023-04-12T16:54:13.616Z,300
2023-04-12T16:56:22.475Z,297
2023-04-12T16:58:31.946Z,293
2023-04-12T17:00:39.697Z,294
2023-04-12T17:02:53.129Z,291
2023-04-12T17:05:04.861Z,289
2023-04-12T17:07:13.285Z,290
2023-04-12T17:09:23.263Z,289
2023-04-12T17:11:32.367Z,291
2023-04-12T17:13:41.155Z,288
2023-04-12T17:15:49.271Z,286
2023-04-12T17:17:56.816Z,293
2023-04-12T17:20:08.254Z,289
2023-04-12T17:22:18.273Z,294
2023-04-12T17:24:29.974Z,293
2023-04-12T17:26:40.269Z,292
2023-04-12T17:28:50.176Z,291
2023-04-12T17:30:59.178Z,290
2023-04-12T17:33:08.862Z,281
2023-04-12T17:35:17.274Z,282
2023-04-12T17:37:26.494Z,282
2023-04-12T17:39:38.168Z,282
2023-04-12T17:41:47.687Z,283
2023-04-12T17:43:57.327Z,284
2023-04-12T17:46:09.188Z,284
2023-04-12T17:48:24.259Z,283
2023-04-12T17:50:38.733Z,283
2023-04-12T17:52:49.016Z,283
2023-04-12T17:54:57.717Z,283
2023-04-12T17:57:07.435Z,281
2023-04-12T17:59:15.686Z,283
2023-04-12T18:01:28.120Z,289
2023-04-12T18:03:36.664Z,291
2023-04-12T18:05:49.284Z,289
2023-04-12T18:07:58.369Z,283
2023-04-12T18:10:08.266Z,282
2023-04-12T18:12:18.754Z,282
2023-04-12T18:14:30.563Z,281
2023-04-12T18:16:40.168Z,284
2023-04-12T18:18:51.944Z,283
2023-04-12T18:21:03.828Z,284
2023-04-12T18:23:25.675Z,283
2023-04-12T18:25:37.179Z,280
2023-04-12T18:27:49.725Z,282
2023-04-12T18:29:58.941Z,282
2023-04-12T18:32:08.149Z,281
2023-04-12T18:37:33.689Z,282
2023-04-12T18:39:45.650Z,283
2023-04-12T18:41:57.720Z,283
2023-04-12T18:44:12.188Z,283
2023-04-12T18:46:27.922Z,283
2023-04-12T18:48:37.919Z,283
2023-04-12T18:50:50.926Z,284
2023-04-12T18:53:05.078Z,283
2023-04-12T18:55:14.393Z,284
2023-04-12T18:57:25.668Z,283
2023-04-12T18:59:39.210Z,284
2023-04-12T19:01:49.707Z,286
2023-04-12T19:04:11.298Z,283
2023-04-12T19:06:25.403Z,279
2023-04-12T19:08:41.319Z,278
2023-04-12T19:10:54.099Z,278
2023-04-12T19:13:07.254Z,280
2023-04-12T19:15:17.090Z,282
2023-04-12T19:17:26.161Z,283
2023-04-12T19:19:41.980Z,279
2023-04-12T19:21:51.948Z,279
2023-04-12T19:24:02.164Z,282
2023-04-12T19:26:31.520Z,283
2023-04-12T19:28:44.575Z,283
2023-04-12T19:30:56.233Z,282
2023-04-12T19:33:06.672Z,282
2023-04-12T19:35:20.989Z,281
2023-04-12T19:37:41.529Z,281
2023-04-12T19:39:53.030Z,281
2023-04-12T19:42:13.922Z,281
2023-04-12T19:44:28.569Z,281
2023-04-12T19:46:38.510Z,279
2023-04-12T19:48:47.312Z,282
2023-04-12T19:50:58.228Z,285
2023-04-12T19:53:07.425Z,283
2023-04-12T19:55:17.493Z,283
2023-04-12T19:57:28.784Z,283
2023-04-12T19:59:40.329Z,281
2023-04-12T20:01:49.801Z,282
2023-04-12T20:04:00.254Z,281
2023-04-12T20:06:09.654Z,281
2023-04-12T20:08:19.141Z,281
2023-04-12T20:10:31.484Z,281
2023-04-12T20:12:42.871Z,282
2023-04-12T20:14:52.452Z,281
2023-04-12T20:17:06.786Z,281
2023-04-12T20:19:16.152Z,281
2023-04-12T20:21:30.258Z,282
2023-04-12T20:23:39.937Z,281
2023-04-12T20:25:53.942Z,281
2023-04-12T20:28:06.487Z,281
2023-04-12T20:30:18.484Z,282
2023-04-12T20:32:33.970Z,281
2023-04-12T20:34:42.356Z,281
2023-04-12T20:36:52.362Z,282
2023-04-12T20:39:02.504Z,282
2023-04-12T20:41:14.757Z,282
2023-04-12T20:43:24.496Z,282
2023-04-12T20:45:37.369Z,282
2023-04-12T20:47:45.875Z,282
2023-04-12T20:49:55.854Z,282
2023-04-12T20:52:02.687Z,282
2023-04-12T20:54:13.658Z,282
2023-04-12T20:56:22.991Z,282
2023-04-12T20:58:31.146Z,282
2023-04-12T21:00:39.437Z,282
2023-04-12T21:02:48.934Z,282
2023-04-12T21:04:59.256Z,282
2023-04-12T21:07:06.690Z,282
2023-04-12T21:09:14.901Z,282
2023-04-12T21:11:22.926Z,282
2023-04-12T21:13:30.257Z,282
2023-04-12T21:15:39.656Z,282
2023-04-12T21:17:46.469Z,282
2023-04-12T21:19:53.541Z,282
2023-04-12T21:22:04.389Z,282
2023-04-12T21:24:10.860Z,283
2023-04-12T21:26:17.689Z,283
2023-04-12T21:28:24.889Z,282
2023-04-12T21:30:31.813Z,283
2023-04-12T21:32:38.501Z,283
2023-04-12T21:34:45.147Z,283
2023-04-12T21:36:51.726Z,283
2023-04-12T21:38:59.950Z,282
2023-04-12T21:41:07.192Z,283
2023-04-12T21:43:14.265Z,282
2023-04-12T21:45:21.451Z,282
2023-04-12T21:47:27.944Z,282
2023-04-12T21:49:39.782Z,282
2023-04-12T21:51:49.285Z,282
2023-04-12T21:53:56.588Z,282
2023-04-12T21:56:03.403Z,281
2023-04-12T21:58:10.456Z,281
2023-04-12T22:00:18.343Z,282
2023-04-12T22:02:25.611Z,282
2023-04-12T22:04:32.997Z,282
2023-04-12T22:06:39.821Z,282
2023-04-12T22:08:46.742Z,282
2023-04-12T22:10:54.244Z,282
2023-04-12T22:13:02.192Z,282
2023-04-12T22:15:08.640Z,282
2023-04-12T22:17:18.694Z,282
2023-04-12T22:19:25.969Z,282
2023-04-12T22:21:32.820Z,282
2023-04-12T22:23:40.750Z,282
2023-04-12T22:25:50.243Z,283
2023-04-12T22:27:57.127Z,282
2023-04-12T22:30:04.045Z,282
2023-04-12T22:32:11.834Z,283
2023-04-12T22:34:19.001Z,283
2023-04-12T22:36:28.734Z,283
2023-04-12T22:38:37.179Z,283
2023-04-12T22:40:44.016Z,283
2023-04-12T22:42:51.350Z,283
2023-04-12T22:44:58.815Z,283
2023-04-12T22:47:06.036Z,283
2023-04-12T22:49:12.838Z,283
2023-04-12T22:51:21.425Z,283
2023-04-12T22:53:28.071Z,283
2023-04-12T22:55:38.324Z,283
2023-04-12T22:57:44.767Z,283
2023-04-12T22:59:54.455Z,283
2023-04-12T23:02:01.357Z,283
2023-04-12T23:04:13.459Z,284
2023-04-12T23:06:34.270Z,283
2023-04-12T23:08:43.204Z,286
2023-04-12T23:10:50.585Z,283
2023-04-12T23:12:56.844Z,284
2023-04-12T23:15:04.334Z,284
2023-04-12T23:17:11.494Z,284
2023-04-12T23:19:18.590Z,284
2023-04-12T23:21:26.973Z,284
2023-04-12T23:23:33.446Z,284
2023-04-12T23:25:41.370Z,284
2023-04-12T23:27:51.586Z,284
2023-04-12T23:29:59.139Z,284
2023-04-12T23:32:08.328Z,285
2023-04-12T23:34:15.336Z,285
2023-04-12T23:36:21.843Z,286
2023-04-12T23:38:29.639Z,286
2023-04-12T23:40:56.470Z,284
2023-04-12T23:43:06.657Z,284
2023-04-12T23:45:13.206Z,285
2023-04-12T23:47:25.586Z,285
2023-04-12T23:49:46.482Z,284
2023-04-12T23:51:53.037Z,285
2023-04-12T23:54:01.572Z,286
2023-04-12T23:56:07.897Z,286
2023-04-12T23:58:16.156Z,285
